createdAt,value
2019-02-05T00:02:39.193Z,101802.37
2019-02-05T00:07:41.664Z,101811.72
2019-02-05T00:12:44.102Z,101806.97
2019-02-05T00:17:46.543Z,101810.78
2019-02-05T00:22:48.984Z,101800.94
2019-02-05T00:27:51.417Z,101806.18
2019-02-05T00:32:53.863Z,101806.27
2019-02-05T00:37:56.304Z,101793.14
2019-02-05T00:42:58.746Z,101798.89
2019-02-05T00:48:01.202Z,101810.59
2019-02-05T00:53:03.651Z,101808.32
2019-02-05T00:58:06.082Z,101786.98
2019-02-05T01:03:08.642Z,101782.36
2019-02-05T01:08:11.108Z,101775.25
2019-02-05T01:13:14.478Z,101777.67
2019-02-05T01:18:16.926Z,101768.11
2019-02-05T01:23:19.358Z,101764.12
2019-02-05T01:28:21.800Z,101777.09
2019-02-05T01:33:24.275Z,101773.02
2019-02-05T01:38:26.715Z,101766.99
2019-02-05T01:43:29.155Z,101777.20
2019-02-05T01:48:31.593Z,101764.89
2019-02-05T01:53:34.035Z,101761.31
2019-02-05T01:58:36.477Z,101766.81
2019-02-05T02:03:38.912Z,101751.97
2019-02-05T02:08:41.357Z,101736.38
2019-02-05T02:13:43.810Z,101742.14
2019-02-05T02:18:46.255Z,101740.23
2019-02-05T02:23:48.710Z,101745.16
2019-02-05T02:28:51.153Z,101761.55
2019-02-05T02:33:53.604Z,101754.30
2019-02-05T02:38:56.045Z,101749.49
2019-02-05T02:43:58.483Z,101752.78
2019-02-05T02:49:00.915Z,101752.86
2019-02-05T02:54:03.476Z,101735.76
2019-02-05T02:59:05.831Z,101742.25
2019-02-05T03:04:08.262Z,101742.98
2019-02-05T03:09:10.824Z,101741.87
2019-02-05T03:14:13.160Z,101733.92
2019-02-05T03:19:15.609Z,101749.09
2019-02-05T03:24:18.058Z,101740.67
2019-02-05T03:29:20.507Z,101744.19
2019-02-05T03:34:22.942Z,101751.52
2019-02-05T03:39:25.412Z,101762.06
2019-02-05T03:44:28.133Z,101754.00
2019-02-05T03:49:30.581Z,101758.50
2019-02-05T03:54:38.629Z,101759.44
2019-02-05T04:05:23.904Z,101758.22
2019-02-05T04:10:38.328Z,101748.64
2019-02-05T04:15:49.711Z,101760.92
2019-02-05T04:21:01.019Z,101764.84
2019-02-05T04:26:21.833Z,101760.65
2019-02-05T04:31:36.171Z,101766.45
2019-02-05T04:37:00.064Z,101758.97
2019-02-05T04:42:14.785Z,101756.42
2019-02-05T04:47:54.479Z,101769.52
2019-02-05T04:53:05.896Z,101773.30
2019-02-05T04:58:23.404Z,101774.14
2019-02-05T05:03:34.729Z,101779.67
2019-02-05T05:08:52.070Z,101779.17
2019-02-05T05:13:54.512Z,101785.87
2019-02-05T05:18:57.003Z,101793.03
2019-02-05T05:23:59.461Z,101800.36
2019-02-05T05:29:01.917Z,101796.56
2019-02-05T05:34:04.350Z,101800.88
2019-02-05T05:39:06.804Z,101793.48
2019-02-05T05:44:09.643Z,101786.31
2019-02-05T05:49:11.678Z,101797.94
2019-02-05T05:54:14.131Z,101808.30
2019-02-05T05:59:16.580Z,101805.52
2019-02-05T06:04:19.078Z,101808.64
2019-02-05T06:09:21.549Z,101806.48
2019-02-05T06:14:23.998Z,101809.86
2019-02-05T06:19:26.483Z,101803.63
2019-02-05T06:24:28.919Z,101808.50
2019-02-05T06:29:31.419Z,101826.16
2019-02-05T06:34:33.873Z,101834.00
2019-02-05T06:39:36.642Z,101823.34
2019-02-05T06:44:39.169Z,101849.63
2019-02-05T06:49:41.663Z,101853.13
2019-02-05T06:54:44.074Z,101856.91
2019-02-05T06:59:46.539Z,101857.84
2019-02-05T07:04:48.991Z,101868.22
2019-02-05T07:09:51.436Z,101866.72
2019-02-05T07:14:53.881Z,101876.05
2019-02-05T07:19:56.335Z,101871.02
2019-02-05T07:25:01.763Z,101888.83
2019-02-05T07:30:04.252Z,101878.14
2019-02-05T07:35:06.668Z,101874.72
2019-02-05T07:40:12.247Z,101883.42
2019-02-05T07:45:14.701Z,101882.47
2019-02-05T07:50:17.162Z,101888.46
2019-02-05T07:55:19.645Z,101887.94
2019-02-05T08:00:22.203Z,101888.38
2019-02-05T08:05:27.848Z,101893.88
2019-02-05T08:10:30.290Z,101897.35
2019-02-05T08:15:32.743Z,101912.25
2019-02-05T08:20:35.208Z,101906.36
2019-02-05T08:25:37.701Z,101907.52
2019-02-05T08:30:40.144Z,101909.70
2019-02-05T08:35:43.372Z,101916.30
2019-02-05T08:40:45.856Z,101918.23
2019-02-05T08:45:56.365Z,101923.05
2019-02-05T08:50:50.768Z,101927.66
2019-02-05T08:55:53.253Z,101931.70
2019-02-05T09:00:55.688Z,101934.36
2019-02-05T09:05:58.136Z,101933.22
2019-02-05T09:11:00.589Z,101940.03
2019-02-05T09:16:03.029Z,101947.25
2019-02-05T09:21:05.477Z,101937.37
2019-02-05T09:26:07.922Z,101939.47
2019-02-05T09:31:10.383Z,101941.67
2019-02-05T09:36:12.823Z,101935.61
2019-02-05T09:41:15.264Z,101937.83
2019-02-05T09:46:17.804Z,101928.48
2019-02-05T09:51:20.241Z,101931.44
2019-02-05T09:56:22.725Z,101935.56
2019-02-05T10:01:25.160Z,101943.38
2019-02-05T10:06:27.609Z,101942.05
2019-02-05T10:11:30.048Z,101958.78
2019-02-05T10:16:32.505Z,101959.85
2019-02-05T10:21:34.947Z,101970.31
2019-02-05T10:26:37.416Z,101969.55
2019-02-05T10:31:40.197Z,101975.52
2019-02-05T10:36:42.571Z,101985.00
2019-02-05T10:41:45.028Z,101975.89
2019-02-05T10:46:47.592Z,101983.98
2019-02-05T10:51:49.927Z,101977.33
2019-02-05T10:56:52.341Z,101984.55
2019-02-05T11:01:54.799Z,101976.34
2019-02-05T11:06:57.253Z,101969.78
2019-02-05T11:11:59.706Z,101964.38
2019-02-05T11:17:02.209Z,101949.50
2019-02-05T11:22:04.659Z,101943.62
2019-02-05T11:27:07.103Z,101939.48
2019-02-05T11:32:09.558Z,101946.06
2019-02-05T11:37:12.007Z,101938.45
2019-02-05T11:42:14.449Z,101937.60
2019-02-05T11:47:16.911Z,101940.73
2019-02-05T11:52:19.373Z,101931.87
2019-02-05T11:57:21.828Z,101921.92
2019-02-05T12:02:24.289Z,101922.36
2019-02-05T12:07:26.761Z,101913.72
2019-02-05T12:12:29.202Z,101904.91
2019-02-05T12:17:31.653Z,101912.05
2019-02-05T12:22:34.099Z,101899.70
2019-02-05T12:27:36.561Z,101903.59
2019-02-05T12:32:39.037Z,101901.17
2019-02-05T12:37:41.479Z,101893.80
2019-02-05T12:42:43.927Z,101888.92
2019-02-05T12:47:46.374Z,101880.05
2019-02-05T12:52:48.832Z,101870.44
2019-02-05T12:57:51.291Z,101871.73
2019-02-05T13:02:54.615Z,101868.02
2019-02-05T13:07:58.582Z,101865.94
2019-02-05T13:13:01.029Z,101862.24
2019-02-05T13:18:03.481Z,101863.57
2019-02-05T13:23:05.913Z,101867.87
2019-02-05T13:28:08.404Z,101864.69
2019-02-05T13:33:10.848Z,101871.02
2019-02-05T13:38:13.289Z,101878.45
2019-02-05T13:43:16.562Z,101876.08
2019-02-05T13:48:18.990Z,101888.92
2019-02-05T13:53:21.421Z,101879.95
2019-02-05T13:58:23.934Z,101877.08
2019-02-05T14:03:26.546Z,101880.81
2019-02-05T14:08:29.003Z,101874.95
2019-02-05T14:13:31.438Z,101870.64
2019-02-05T14:18:33.884Z,101873.30
2019-02-05T14:23:36.325Z,101868.31
2019-02-05T14:28:38.769Z,101866.34
2019-02-05T14:33:41.245Z,101864.05
2019-02-05T14:38:43.703Z,101855.33
2019-02-05T14:43:46.155Z,101857.41
2019-02-05T14:48:48.602Z,101854.97
2019-02-05T14:53:51.046Z,101852.66
2019-02-05T14:58:53.513Z,101850.42
2019-02-05T15:03:55.942Z,101857.44
2019-02-05T15:08:58.393Z,101849.63
2019-02-05T15:14:00.831Z,101850.48
2019-02-05T15:19:03.275Z,101855.86
2019-02-05T15:24:05.734Z,101855.31
2019-02-05T15:29:08.207Z,101856.09
2019-02-05T15:34:10.644Z,101864.23
2019-02-05T15:39:13.083Z,101860.61
2019-02-05T15:44:15.535Z,101855.56
2019-02-05T15:49:17.989Z,101856.45
2019-02-05T15:54:20.454Z,101853.87
2019-02-05T15:59:22.897Z,101846.16
2019-02-05T16:04:25.418Z,101836.42
2019-02-05T16:09:27.839Z,101834.94
2019-02-05T16:14:30.308Z,101843.96
2019-02-05T16:19:35.864Z,101839.48
2019-02-05T16:24:38.318Z,101842.94
2019-02-05T16:29:43.336Z,101849.22
2019-02-05T16:34:45.786Z,101859.81
2019-02-05T16:39:48.251Z,101859.95
2019-02-05T16:44:50.713Z,101866.08
2019-02-05T16:49:53.182Z,101875.50
2019-02-05T16:54:55.642Z,101879.21
2019-02-05T16:59:58.091Z,101880.23
2019-02-05T17:05:00.670Z,101885.93
2019-02-05T17:10:03.049Z,101880.23
2019-02-05T17:15:05.506Z,101892.86
2019-02-05T17:20:07.970Z,101896.62
2019-02-05T17:25:10.429Z,101907.69
2019-02-05T17:30:12.998Z,101910.75
2019-02-05T17:35:15.430Z,101905.64
2019-02-05T17:40:20.036Z,101903.77
2019-02-05T17:45:26.257Z,101904.34
2019-02-05T17:50:28.722Z,101899.08
2019-02-05T17:55:31.161Z,101909.30
2019-02-05T18:00:36.973Z,101897.58
2019-02-05T18:05:39.423Z,101890.56
2019-02-05T18:10:42.144Z,101879.97
2019-02-05T18:15:44.364Z,101880.86
2019-02-05T18:20:46.810Z,101878.98
2019-02-05T18:25:49.265Z,101894.83
2019-02-05T18:30:51.744Z,101888.84
2019-02-05T18:35:54.562Z,101893.38
2019-02-05T18:40:56.929Z,101895.81
2019-02-05T18:45:59.394Z,101902.30
2019-02-05T18:51:01.863Z,101900.47
2019-02-05T18:56:04.334Z,101886.30
2019-02-05T19:01:06.801Z,101895.19
2019-02-05T19:06:09.268Z,101890.95
2019-02-05T19:11:11.769Z,101893.45
2019-02-05T19:16:14.238Z,101885.44
2019-02-05T19:21:16.916Z,101870.53
2019-02-05T19:26:19.368Z,101873.55
2019-02-05T19:31:24.807Z,101876.41
2019-02-05T19:36:27.379Z,101881.55
2019-02-05T19:41:29.742Z,101885.21
2019-02-05T19:46:44.441Z,101883.38
2019-02-05T19:51:46.868Z,101893.83
2019-02-05T19:56:49.370Z,101893.63
2019-02-05T20:01:51.791Z,101889.30
2019-02-05T20:06:54.260Z,101894.84
2019-02-05T20:11:56.705Z,101901.05
2019-02-05T20:16:59.172Z,101896.86
2019-02-05T20:22:01.647Z,101895.41
2019-02-05T20:27:04.103Z,101896.89
2019-02-05T20:32:06.555Z,101884.89
2019-02-05T20:37:09.018Z,101891.26
2019-02-05T20:42:11.484Z,101889.06
2019-02-05T20:47:13.961Z,101892.48
2019-02-05T20:52:16.413Z,101889.38
2019-02-05T20:57:19.310Z,101899.52
2019-02-05T21:02:21.751Z,101896.41
2019-02-05T21:07:24.207Z,101887.55
2019-02-05T21:12:26.679Z,101887.30
2019-02-05T21:17:29.125Z,101877.98
2019-02-05T21:22:31.599Z,101876.75
2019-02-05T21:27:34.022Z,101878.23
2019-02-05T21:32:36.474Z,101873.59
2019-02-05T21:37:38.917Z,101864.92
2019-02-05T21:42:41.392Z,101866.56
2019-02-05T21:47:43.867Z,101861.77
2019-02-05T21:52:48.542Z,101855.24
2019-02-05T21:57:48.892Z,101848.02
2019-02-05T22:02:51.328Z,101852.21
2019-02-05T22:07:53.749Z,101849.92
2019-02-05T22:12:56.203Z,101852.52
2019-02-05T22:17:58.646Z,101845.59
2019-02-05T22:23:01.105Z,101842.78
2019-02-05T22:28:03.572Z,101840.83
2019-02-05T22:33:06.044Z,101851.48
2019-02-05T22:38:08.501Z,101850.17
2019-02-05T22:43:10.950Z,101845.02
2019-02-05T22:48:13.399Z,101855.34
2019-02-05T22:53:15.920Z,101858.56
2019-02-05T22:58:18.274Z,101859.58
2019-02-05T23:03:38.832Z,101867.07
2019-02-05T23:08:41.230Z,101862.73
2019-02-05T23:13:43.685Z,101860.39
2019-02-05T23:18:46.143Z,101855.86
2019-02-05T23:23:48.601Z,101851.91
2019-02-05T23:28:51.094Z,101845.55
2019-02-05T23:33:53.551Z,101853.80
2019-02-05T23:38:55.975Z,101855.17
2019-02-05T23:43:58.431Z,101852.77
2019-02-05T23:49:00.886Z,101841.68
2019-02-05T23:54:03.340Z,101844.95
2019-02-05T23:59:05.785Z,101841.53
